x

Western Gulf Of Alaska - 175nm Se Of Kodiak, Ak (46001) Wave Buoy

6:50pm - Sat 23rd Jul 2016 All times are AKDT. -8 hours from GMT.

  • Sig Wave height 11.2ft
  • Peak Period 9s
  • Average Period 7s
  • Wind
    16mph, 18mph gusts
  • Sea Temp 58°f
  • Air Temp 58°f
  • Sea Pressure 1007.3mb
  • Western Gulf Of Alaska  - 175nm Se Of Kodiak, Ak
  • Western Gulf Of Alaska  - 175nm Se Of Kodiak, Ak

More Historic Weather Station data

Upgrade to MSW Pro to gain access to the past 30 days of data for over 8000 Wavebouys and Weather Stations around the globe.

Join Pro

Comparision Forecast

View Surf forecast
   
Sat 07/23 6:50pm 11ft 9s 7s 16 18 mph 1007.3mb 58f 58f
5:50pm 12ft 10s 7s 18 20 mph 1007.1mb 58f 58f
4:50pm 11.5ft 9s 7s 20 25 mph 1006.6mb 58f 58f
3:50pm  -   -   -  22 27 mph 1006.2mb 58f 59f
2:50pm 13ft 10s 7s 22 27 mph 1005.7mb 58f 59f
1:50pm 13ft 9s 7s 25 31 mph 1005.2mb 58f 59f
12:50pm 14ft 9s 7s 25 29 mph 1004.6mb 58f 59f
11:50am 13.5ft 8s 7s 27 34 mph 1003.9mb 58f 59f
10:50am 13.5ft 10s 7s 27 36 mph 1003.4mb 58f 59f
9:50am 12ft 9s 6s 27 34 mph 1002.8mb 58f 59f
8:50am 12ft 10s 7s 27 34 mph 1002.4mb 58f 59f
7:50am 12ft 9s  -  29 34 mph 1001.9mb 58f 59f
6:50am 11.5ft 10s 7s 25 29 mph 1001.7mb 58f 58f
5:50am 9.5ft 10s 6s 27 34 mph 1001.5mb 58f 58f
4:50am 9ft 9s 6s 22 29 mph 1001.4mb 58f 58f
3:50am 9ft 9s 6s 22 27 mph 1001.5mb 58f 56f
2:50am 10ft 8s 6s 25 29 mph 1001.5mb 58f 58f
1:50am 10.5ft 8s 6s 27 31 mph 1001.7mb 58f 58f
12:50am 11ft 8s 7s 27 34 mph 1001.8mb 58f 58f
Fri 07/22 11:50pm 10.5ft 8s 6s 29 38 mph 1002mb 58f 57f
10:50pm 10.5ft 8s 6s 29 36 mph 1002.2mb 58f 59f
9:50pm 9ft 8s 6s 25 34 mph 1002.3mb 58f 58f
8:50pm 9ft 8s 6s 25 29 mph 1002.6mb 58f 58f
7:50pm 8ft 8s 6s 25 29 mph 1002.9mb 58f 58f
6:50pm 6.5ft 8s 5s 22 27 mph 1003.1mb 59f 57f
5:50pm 7ft 8s 5s 22 27 mph 1003.9mb 58f 57f
4:50pm 7ft 7s 5s 20 22 mph 1004.5mb 58f 58f
3:50pm 6ft 7s 5s 20 25 mph 1005.3mb 58f 58f
2:50pm 6ft 7s 5s 20 22 mph 1006.1mb 58f 58f
1:50pm 7ft 7s 5s 20 25 mph 1006.9mb 58f 58f
12:50pm 6.5ft 7s 5s 18 20 mph 1007.3mb 58f 58f
11:50am 6ft 7s 5s 18 20 mph 1007.9mb 58f 58f
10:50am 6ft 7s 5s 16 18 mph 1008.3mb 58f 57f
9:50am 6.5ft 7s 5s 16 20 mph 1009mb 58f 58f
8:50am 6ft 7s 5s 16 20 mph 1009.3mb 58f 58f
7:50am 6ft 8s 5s 18 20 mph 1009.7mb 58f 58f
6:50am 5ft 8s 5s 18 22 mph 1010.3mb 58f 58f
5:50am 5.5ft 8s 5s 18 20 mph 1010.3mb 58f 58f
4:50am 4.5ft 8s 5s 18 22 mph 1011.1mb 58f 58f
3:50am 5ft 7s 5s 16 18 mph 1011.5mb 58f 58f
2:50am 4.5ft 7s 5s 16 18 mph 1012.2mb 58f 58f
1:50am 5ft 7s 5s 16 18 mph 1012.8mb 59f 58f
12:50am 5ft 7s 5s 11 13 mph 1013.1mb 59f 58f
Thu 07/21 11:50pm 5ft 8s 6s 11 13 mph 1013.7mb 59f 58f
10:50pm 5ft 7s 6s 9 11 mph 1014.2mb 59f 59f
9:50pm 5ft 7s 5s 9 11 mph 1014.3mb 59f 59f
8:50pm 5ft 7s 5s 11 13 mph 1014.4mb 59f 59f
7:50pm 4.5ft 7s 5s 13 16 mph 1014.3mb 59f 59f
6:50pm 4.5ft 7s 5s 13 16 mph 1014.3mb 59f 59f
5:50pm 4ft 7s 5s 13
mph
1014.3mb 59f 59f
4:50pm 4ft 7s 5s 13 16 mph 1014.3mb 59f 59f
3:50pm 3.5ft 7s 5s 11 13 mph 1014.6mb 59f 58f
2:50pm 4ft 7s 5s 9 11 mph 1014.3mb 59f 59f
1:50pm 4ft 7s 5s 9 11 mph 1014.5mb 59f 59f
12:50pm 4ft 7s 5s 11 13 mph 1014.5mb 58f 59f
11:50am 4.5ft 7s 5s 13 16 mph 1014.5mb 58f 59f
10:50am 4.5ft 8s 5s 13 16 mph 1014.5mb 58f 58f
9:50am 3.5ft 7s 5s 13 16 mph 1014.8mb 58f 58f
8:50am 4ft 7s 5s 11 13 mph 1015.2mb 58f 59f
7:50am 3.5ft 7s 5s 11 13 mph 1015.5mb 58f 58f
6:50am 3.5ft 6s 5s 11
mph
1015.8mb 58f 59f
5:50am 4ft 7s 6s 9 11 mph 1015.7mb 58f 58f
4:50am 4ft 7s 5s 7
mph
1016.2mb 58f 58f
3:50am 4.5ft 7s 5s 7 9 mph 1016.5mb 58f 58f
2:50am 5ft 7s 6s 7
mph
1016.7mb 58f 58f
1:50am 5ft 7s 6s 7
mph
1016.9mb 58f 58f
12:50am 5ft 7s 6s 7
mph
1017mb 58f 58f
Wed 07/20 11:50pm 5.5ft 7s 6s 4 7 mph 1017.1mb 58f 58f
10:50pm 6ft 7s 6s 4 7 mph 1017.3mb 58f 58f
9:50pm 6ft 8s 6s 7 11 mph 1017mb 58f 58f
8:50pm 6ft 7s 6s 9
mph
1016.9mb 59f 59f
7:50pm 6ft 8s 6s 9 11 mph 1016.6mb 59f 59f
6:50pm 6ft 8s 6s 13 18 mph 1016.6mb 59f 59f
5:50pm 6ft 7s 5s 16 18 mph 1016.1mb 59f 59f
4:50pm 6ft 8s 5s 18 22 mph 1015.9mb 59f 59f
3:50pm 6ft 8s 5s 20 22 mph 1015.7mb 59f 58f
2:50pm 6.5ft 7s 5s 13 18 mph 1015.5mb 59f 59f
1:50pm 7ft 8s 5s 20 22 mph 1015mb 58f 59f
12:50pm 7ft 8s 6s 18 20 mph 1014.9mb 58f 59f
11:50am 7.5ft 8s 6s 18 22 mph 1014.7mb 58f 59f
10:50am 7.5ft 8s 6s 18 22 mph 1014.5mb 58f 60f
9:50am 8ft 7s 6s 20 25 mph 1014.6mb 58f 60f
8:50am 8ft 8s 6s 20 27 mph 1014.3mb 58f 60f
7:50am 8ft 8s 6s 25 29 mph 1013.7mb 58f 60f
6:50am 8ft 8s 5s 22 27 mph 1013.5mb 58f 60f
5:50am 7.5ft 8s 5s 25 31 mph 1013.1mb 58f 61f
4:50am 7ft 8s 5s 22 27 mph 1012.9mb 58f 61f